createdAt,value
2022-11-21T00:01:21.326Z,80.13
2022-11-21T00:03:49.048Z,83.60
2022-11-21T00:06:17.114Z,87.40
2022-11-21T00:08:45.322Z,81.03
2022-11-21T00:11:12.809Z,84.63
2022-11-21T00:13:40.118Z,81.18
2022-11-21T00:16:12.551Z,86.60
2022-11-21T00:18:40.788Z,94.38
2022-11-21T00:21:11.892Z,85.63
2022-11-21T00:23:39.072Z,84.30
2022-11-21T00:26:11.373Z,101.38
2022-11-21T00:28:38.688Z,91.30
2022-11-21T00:31:06.257Z,97.40
2022-11-21T00:33:37.299Z,87.43
2022-11-21T00:36:09.213Z,81.63
2022-11-21T00:38:37.236Z,87.82
2022-11-21T00:41:04.612Z,94.45
2022-11-21T00:43:32.330Z,83.47
2022-11-21T00:46:01.464Z,86.82
2022-11-21T00:48:30.119Z,95.03
2022-11-21T00:50:57.199Z,85.53
2022-11-21T00:53:24.309Z,79.57
2022-11-21T00:55:51.074Z,87.97
2022-11-21T00:58:18.203Z,85.47
2022-11-21T01:00:45.080Z,98.28
2022-11-21T01:03:12.424Z,87.10
2022-11-21T01:05:39.288Z,78.45
2022-11-21T01:08:06.526Z,89.90
2022-11-21T01:10:35.026Z,85.75
2022-11-21T01:13:02.773Z,88.40
2022-11-21T01:15:29.790Z,81.20
2022-11-21T01:17:57.300Z,85.82
2022-11-21T01:20:24.126Z,90.82
2022-11-21T01:22:51.393Z,90.18
2022-11-21T01:25:18.393Z,88.80
2022-11-21T01:27:45.640Z,85.68
2022-11-21T01:30:14.501Z,91.97
2022-11-21T01:32:41.853Z,96.03
2022-11-21T01:35:08.822Z,81.95
2022-11-21T01:37:36.199Z,90.40
2022-11-21T01:40:04.083Z,78.85
2022-11-21T01:42:46.702Z,85.60
2022-11-21T01:45:51.465Z,87.70
2022-11-21T01:48:19.328Z,84.43
2022-11-21T01:50:46.306Z,90.30
2022-11-21T01:53:13.511Z,90.70
2022-11-21T01:55:40.409Z,94.15
2022-11-21T01:58:07.476Z,85.75
2022-11-21T02:00:38.507Z,95.82
2022-11-21T02:03:10.338Z,89.25
2022-11-21T02:05:39.207Z,91.57
2022-11-21T02:08:19.497Z,95.88
2022-11-21T02:11:13.585Z,88.88
2022-11-21T02:13:40.817Z,82.40
2022-11-21T02:16:08.389Z,88.85
2022-11-21T02:18:35.686Z,85.85
2022-11-21T02:21:23.474Z,87.65
2022-11-21T02:24:00.217Z,88.18
2022-11-21T02:26:27.443Z,89.05
2022-11-21T02:28:54.613Z,95.43
2022-11-21T02:31:21.471Z,91.30
2022-11-21T02:33:48.552Z,91.28
2022-11-21T02:36:41.582Z,88.05
2022-11-21T02:39:14.088Z,92.75
2022-11-21T02:41:48.656Z,98.55
2022-11-21T02:44:24.503Z,94.40
2022-11-21T02:46:52.130Z,96.28
2022-11-21T02:49:28.444Z,93.55
2022-11-21T02:51:55.340Z,93.38
2022-11-21T02:54:22.387Z,100.20
2022-11-21T02:56:49.190Z,95.47
2022-11-21T02:59:16.274Z,100.30
2022-11-21T03:01:43.177Z,86.20
2022-11-21T03:04:10.215Z,88.03
2022-11-21T03:06:37.214Z,84.47
2022-11-21T03:09:04.282Z,96.30
2022-11-21T03:11:31.132Z,92.60
2022-11-21T03:13:58.212Z,88.25
2022-11-21T03:16:24.977Z,89.30
2022-11-21T03:18:52.039Z,97.40
2022-11-21T03:21:18.894Z,95.90
2022-11-21T03:23:46.125Z,97.85
2022-11-21T03:26:13.316Z,89.63
2022-11-21T03:28:42.887Z,102.30
2022-11-21T03:31:09.862Z,95.60
2022-11-21T03:33:37.069Z,92.07
2022-11-21T03:36:04.117Z,87.25
2022-11-21T03:38:31.173Z,88.40
2022-11-21T03:40:58.173Z,95.95
2022-11-21T03:43:25.591Z,96.63
2022-11-21T03:45:52.408Z,99.70
2022-11-21T03:48:19.569Z,97.57
2022-11-21T03:50:46.417Z,97.38
2022-11-21T03:53:13.693Z,92.40
2022-11-21T03:55:43.140Z,99.07
2022-11-21T03:58:10.453Z,93.57
2022-11-21T04:00:37.289Z,93.32
2022-11-21T04:03:04.340Z,98.15
2022-11-21T04:05:31.135Z,96.53
2022-11-21T04:07:58.170Z,89.43
2022-11-21T04:10:25.029Z,98.25
2022-11-21T04:13:10.193Z,93.38
2022-11-21T04:15:37.438Z,101.88
2022-11-21T04:18:04.369Z,104.50
2022-11-21T04:20:31.409Z,89.00
2022-11-21T04:22:58.213Z,104.47
2022-11-21T04:25:25.282Z,95.30
2022-11-21T04:27:52.036Z,108.65
2022-11-21T04:30:19.244Z,96.28
2022-11-21T04:32:47.675Z,90.32
2022-11-21T04:35:15.036Z,81.10
2022-11-21T04:37:41.793Z,94.00
2022-11-21T04:40:09.383Z,91.85
2022-11-21T04:42:36.341Z,93.55
2022-11-21T04:45:03.788Z,94.75
2022-11-21T04:47:31.178Z,96.13
2022-11-21T04:49:58.732Z,94.22
2022-11-21T04:52:25.602Z,93.90
2022-11-21T04:54:52.727Z,94.50
2022-11-21T04:57:19.539Z,96.60
2022-11-21T04:59:46.585Z,92.38
2022-11-21T05:02:13.558Z,94.30
2022-11-21T05:04:40.708Z,91.78
2022-11-21T05:07:07.678Z,100.32
2022-11-21T05:09:34.891Z,94.03
2022-11-21T05:12:20.376Z,97.72
2022-11-21T05:14:47.511Z,99.05
2022-11-21T05:17:14.462Z,87.65
2022-11-21T05:19:41.545Z,87.97
2022-11-21T05:22:08.505Z,81.72
2022-11-21T05:24:35.665Z,90.10
2022-11-21T05:27:02.463Z,96.60
2022-11-21T05:29:29.695Z,95.90
2022-11-21T05:31:56.512Z,96.63
2022-11-21T05:34:23.886Z,90.13
2022-11-21T05:36:57.159Z,90.10
2022-11-21T05:39:25.377Z,87.00
2022-11-21T05:41:52.280Z,94.93
2022-11-21T05:44:19.418Z,88.75
2022-11-21T05:46:46.495Z,97.47
2022-11-21T05:49:13.858Z,75.35
2022-11-21T05:51:40.883Z,94.07
2022-11-21T05:54:07.999Z,88.03
2022-11-21T05:56:35.202Z,81.30
2022-11-21T05:59:02.261Z,89.28
2022-11-21T06:01:47.767Z,78.75
2022-11-21T06:04:14.975Z,96.65
2022-11-21T06:06:41.817Z,80.18
2022-11-21T06:09:08.905Z,90.88
2022-11-21T06:11:35.675Z,87.13
2022-11-21T06:14:02.793Z,88.60
2022-11-21T06:16:30.419Z,90.28
2022-11-21T06:18:58.885Z,82.85
2022-11-21T06:21:28.518Z,75.95
2022-11-21T06:23:57.487Z,98.30
2022-11-21T06:26:27.277Z,94.93
2022-11-21T06:28:54.739Z,90.22
2022-11-21T06:31:24.256Z,84.55
2022-11-21T06:33:56.404Z,88.72
2022-11-21T06:36:23.615Z,89.05
2022-11-21T06:38:53.565Z,78.93
2022-11-21T06:41:23.281Z,88.63
2022-11-21T06:43:50.545Z,85.45
2022-11-21T06:46:17.627Z,91.05
2022-11-21T06:48:45.165Z,78.95
2022-11-21T06:51:20.396Z,77.28
2022-11-21T06:53:55.792Z,85.68
2022-11-21T06:56:27.178Z,91.75
2022-11-21T06:58:54.561Z,88.18
2022-11-21T07:01:22.261Z,84.63
2022-11-21T07:03:49.534Z,86.50
2022-11-21T07:06:16.334Z,87.70
2022-11-21T07:08:43.578Z,88.35
2022-11-21T07:11:28.520Z,83.10
2022-11-21T07:13:56.705Z,87.97
2022-11-21T07:16:26.204Z,87.50
2022-11-21T07:18:54.086Z,65.67
2022-11-21T07:21:21.368Z,82.85
2022-11-21T07:23:50.545Z,72.18
2022-11-21T07:26:17.445Z,69.25
2022-11-21T07:28:44.661Z,78.53
2022-11-21T07:31:13.947Z,76.80
2022-11-21T07:33:43.739Z,71.80
2022-11-21T07:36:14.350Z,64.88
2022-11-21T07:38:42.131Z,69.90
2022-11-21T07:41:10.659Z,69.90
2022-11-21T07:43:38.706Z,67.35
2022-11-21T07:46:05.948Z,71.35
2022-11-21T07:48:33.204Z,70.80
2022-11-21T07:51:03.780Z,74.45
2022-11-21T07:53:31.011Z,69.60
2022-11-21T07:56:00.456Z,74.88
2022-11-21T07:58:45.392Z,84.30
2022-11-21T08:02:31.768Z,77.88
2022-11-21T08:04:59.209Z,72.47
2022-11-21T08:07:36.647Z,76.70
2022-11-21T08:10:04.819Z,88.55
2022-11-21T08:12:33.177Z,76.10
2022-11-21T08:15:00.646Z,86.45
2022-11-21T08:17:27.762Z,83.82
2022-11-21T08:19:55.218Z,83.65
2022-11-21T08:22:22.152Z,81.05
2022-11-21T08:25:00.526Z,72.68
2022-11-21T08:27:57.840Z,80.93
2022-11-21T08:30:25.517Z,78.10
2022-11-21T08:32:52.888Z,90.75
2022-11-21T08:35:20.500Z,95.35
2022-11-21T08:38:00.752Z,74.05
2022-11-21T08:40:29.871Z,84.80
2022-11-21T08:43:01.680Z,76.13
2022-11-21T08:45:29.418Z,93.82
2022-11-21T08:47:56.900Z,70.30
2022-11-21T08:50:24.855Z,69.88
2022-11-21T08:52:52.158Z,80.30
2022-11-21T08:55:19.661Z,80.07
2022-11-21T08:57:46.571Z,72.47
2022-11-21T09:00:14.674Z,79.50
2022-11-21T09:02:41.908Z,82.43
2022-11-21T09:05:09.892Z,75.47
2022-11-21T09:07:37.431Z,76.80
2022-11-21T09:10:05.336Z,82.00
2022-11-21T09:12:32.218Z,64.30
2022-11-21T09:15:17.908Z,70.13
2022-11-21T09:21:51.262Z,85.32
2022-11-21T09:26:46.957Z,81.53
2022-11-21T09:29:15.236Z,103.95
2022-11-21T09:31:44.425Z,73.72
2022-11-21T09:34:12.080Z,77.82
2022-11-21T09:36:39.841Z,73.28
2022-11-21T09:39:07.532Z,72.88
2022-11-21T09:42:01.515Z,106.82
2022-11-21T09:44:43.892Z,93.15
2022-11-21T09:47:31.198Z,69.22
2022-11-21T09:50:04.699Z,88.20
2022-11-21T09:52:51.938Z,74.90
2022-11-21T09:55:36.505Z,84.97
2022-11-21T09:58:07.275Z,69.00
2022-11-21T10:00:36.358Z,80.93
2022-11-21T10:03:03.803Z,76.35
2022-11-21T10:05:43.987Z,67.00
2022-11-21T10:08:28.959Z,72.38
2022-11-21T10:11:14.149Z,92.10
2022-11-21T10:14:21.190Z,84.13
2022-11-21T10:17:28.786Z,96.47
2022-11-21T10:20:07.870Z,80.07
2022-11-21T10:23:12.393Z,89.70
2022-11-21T10:25:40.022Z,66.40
2022-11-21T10:28:26.395Z,62.17
2022-11-21T10:30:57.024Z,64.85
2022-11-21T10:33:33.038Z,73.03
2022-11-21T10:36:12.240Z,62.35
2022-11-21T10:38:43.314Z,63.63
2022-11-21T10:41:16.079Z,49.45
2022-11-21T10:44:09.808Z,63.72
2022-11-21T10:46:36.761Z,59.75
2022-11-21T10:49:04.773Z,55.83
2022-11-21T10:51:48.739Z,47.33
2022-11-21T10:54:34.430Z,47.50
2022-11-21T10:57:18.199Z,55.10
2022-11-21T11:00:01.269Z,43.90
2022-11-21T11:02:28.857Z,53.40
2022-11-21T11:05:20.880Z,53.05
2022-11-21T11:08:14.752Z,46.28
2022-11-21T11:11:02.249Z,51.40
2022-11-21T11:13:51.182Z,53.60
2022-11-21T11:16:24.302Z,56.42
2022-11-21T11:19:02.297Z,51.70
2022-11-21T11:21:38.734Z,53.70
2022-11-21T11:24:27.689Z,54.25
2022-11-21T11:27:05.103Z,47.88
2022-11-21T11:29:49.057Z,52.92
2022-11-21T11:32:21.535Z,52.03
2022-11-21T11:35:00.806Z,48.15
2022-11-21T11:37:42.441Z,48.05
2022-11-21T11:40:26.249Z,54.80
2022-11-21T11:43:49.814Z,49.80
2022-11-21T11:46:51.565Z,47.30
2022-11-21T11:49:52.750Z,43.05
2022-11-21T11:52:24.558Z,48.80
2022-11-21T11:55:01.985Z,48.75
2022-11-21T11:57:34.637Z,49.47
2022-11-21T12:00:16.362Z,46.45
2022-11-21T12:03:13.205Z,46.72
2022-11-21T12:05:56.924Z,56.20
2022-11-21T12:08:48.992Z,50.53
2022-11-21T12:11:44.254Z,46.03
2022-11-21T12:14:50.400Z,49.20
2022-11-21T12:17:21.533Z,50.53
2022-11-21T12:19:52.738Z,47.25
2022-11-21T12:24:48.121Z,49.47
2022-11-21T12:27:18.487Z,49.85
2022-11-21T12:30:14.967Z,41.92
2022-11-21T12:32:55.947Z,44.38
2022-11-21T12:36:09.013Z,46.92
2022-11-21T12:38:45.138Z,50.42
2022-11-21T12:42:00.840Z,49.67
2022-11-21T12:45:24.087Z,49.30
2022-11-21T12:48:29.087Z,41.55
2022-11-21T12:51:14.946Z,51.85
2022-11-21T12:54:11.624Z,52.97
2022-11-21T12:56:38.927Z,56.33
2022-11-21T12:59:08.060Z,46.72
2022-11-21T13:01:53.033Z,58.13
2022-11-21T13:04:30.656Z,45.70
2022-11-21T13:06:59.787Z,51.53
2022-11-21T13:09:31.579Z,49.10
2022-11-21T13:12:05.480Z,53.35
2022-11-21T13:14:44.473Z,53.22
2022-11-21T13:17:27.264Z,46.08
2022-11-21T13:20:14.299Z,54.13
2022-11-21T13:22:42.097Z,57.00
2022-11-21T13:25:40.475Z,54.65
2022-11-21T13:28:14.383Z,53.55
2022-11-21T13:30:55.844Z,59.88
2022-11-21T13:33:36.189Z,54.17
2022-11-21T13:36:07.930Z,56.25
2022-11-21T13:38:53.842Z,53.25
2022-11-21T13:41:55.211Z,51.65
2022-11-21T13:44:32.211Z,72.80
2022-11-21T13:47:20.027Z,60.15
2022-11-21T13:50:10.078Z,53.92
2022-11-21T13:53:24.083Z,61.40
2022-11-21T13:56:18.981Z,63.13
2022-11-21T13:58:52.129Z,48.47
2022-11-21T14:01:37.490Z,51.92
2022-11-21T14:04:35.430Z,58.17
2022-11-21T14:07:24.185Z,55.83
2022-11-21T14:09:57.604Z,49.17
2022-11-21T14:12:44.024Z,58.47
2022-11-21T14:15:51.179Z,53.03
2022-11-21T14:18:24.555Z,63.33
2022-11-21T14:20:58.195Z,61.55
2022-11-21T14:23:29.233Z,58.97
2022-11-21T14:26:05.389Z,52.35
2022-11-21T14:28:35.411Z,59.47
2022-11-21T14:31:06.635Z,60.53
2022-11-21T14:33:36.268Z,64.35
2022-11-21T14:36:18.836Z,56.05
2022-11-21T14:39:07.629Z,54.80
2022-11-21T14:41:41.194Z,64.32
2022-11-21T14:44:08.548Z,65.53
2022-11-21T14:46:36.857Z,64.07
2022-11-21T14:49:16.468Z,68.40
2022-11-21T14:51:46.436Z,65.55
2022-11-21T14:54:26.850Z,62.38
2022-11-21T14:57:07.892Z,72.38
2022-11-21T14:59:43.024Z,70.40
2022-11-21T15:02:26.393Z,84.38
2022-11-21T15:04:58.270Z,86.10
2022-11-21T15:07:36.954Z,79.30
2022-11-21T15:10:27.291Z,87.97
2022-11-21T15:12:59.508Z,85.93
2022-11-21T15:15:50.114Z,93.05
2022-11-21T15:18:27.969Z,83.63
2022-11-21T15:21:16.519Z,99.72
2022-11-21T15:23:44.545Z,70.78
2022-11-21T15:26:31.560Z,85.75
2022-11-21T15:29:00.801Z,93.15
2022-11-21T15:31:28.466Z,70.85
2022-11-21T15:37:08.279Z,86.53
2022-11-21T15:39:37.994Z,81.22
2022-11-21T15:42:44.255Z,84.28
2022-11-21T15:45:19.754Z,75.72
2022-11-21T15:47:47.519Z,71.18
2022-11-21T15:50:16.866Z,84.78
2022-11-21T15:52:49.029Z,73.07
2022-11-21T15:55:21.623Z,75.55
2022-11-21T15:57:48.831Z,72.07
2022-11-21T16:00:17.414Z,78.78
2022-11-21T16:02:44.571Z,77.55
2022-11-21T16:05:14.645Z,80.13
2022-11-21T16:07:42.059Z,59.45
2022-11-21T16:10:19.464Z,73.45
2022-11-21T16:12:49.937Z,81.20
2022-11-21T16:15:17.225Z,69.13
2022-11-21T16:17:45.746Z,80.63
2022-11-21T16:20:15.054Z,79.25
2022-11-21T16:22:47.139Z,60.20
2022-11-21T16:25:16.264Z,77.68
2022-11-21T16:27:43.061Z,69.10
2022-11-21T16:30:10.773Z,77.53
2022-11-21T16:32:37.603Z,76.97
2022-11-21T16:35:06.147Z,71.47
2022-11-21T16:37:34.299Z,73.32
2022-11-21T16:40:01.989Z,63.08
2022-11-21T16:42:28.869Z,78.63
2022-11-21T16:44:56.266Z,76.32
2022-11-21T16:47:23.149Z,74.15
2022-11-21T16:49:50.478Z,85.40
2022-11-21T16:52:18.375Z,67.15
2022-11-21T16:54:47.259Z,79.13
2022-11-21T16:57:14.150Z,80.80
2022-11-21T16:59:41.353Z,68.43
2022-11-21T17:02:10.057Z,68.57
2022-11-21T17:04:37.602Z,77.10
2022-11-21T17:07:04.593Z,72.82
2022-11-21T17:09:31.765Z,75.13
2022-11-21T17:11:59.212Z,73.07
2022-11-21T17:14:26.884Z,79.93
2022-11-21T17:16:54.302Z,78.63
2022-11-21T17:19:22.417Z,78.53
2022-11-21T17:21:49.158Z,88.20
2022-11-21T17:24:16.523Z,75.95
2022-11-21T17:26:43.457Z,86.03
2022-11-21T17:29:12.999Z,76.72
2022-11-21T17:31:41.869Z,93.30
2022-11-21T17:34:09.315Z,80.25
2022-11-21T17:36:36.363Z,69.55
2022-11-21T17:39:03.641Z,74.90
2022-11-21T17:41:30.517Z,77.18
2022-11-21T17:43:58.782Z,77.28
2022-11-21T17:46:26.840Z,76.80
2022-11-21T17:48:58.201Z,82.20
2022-11-21T17:51:29.389Z,78.70
2022-11-21T17:53:57.625Z,79.53
2022-11-21T17:56:27.863Z,73.57
2022-11-21T17:58:56.151Z,81.25
2022-11-21T18:01:23.305Z,85.53
2022-11-21T18:03:55.011Z,87.50
2022-11-21T18:08:50.677Z,74.20
2022-11-21T18:11:21.099Z,72.10
2022-11-21T18:13:50.003Z,76.15
2022-11-21T18:16:19.674Z,77.28
2022-11-21T18:18:47.829Z,78.22
2022-11-21T18:21:18.507Z,82.38
2022-11-21T18:26:21.238Z,88.43
2022-11-21T18:29:01.769Z,85.05
2022-11-21T18:31:37.576Z,80.57
2022-11-21T18:34:06.605Z,80.97
2022-11-21T18:36:33.752Z,78.95
2022-11-21T18:39:07.249Z,85.15
2022-11-21T18:41:39.144Z,85.30
2022-11-21T18:44:07.069Z,74.10
2022-11-21T18:46:36.795Z,83.28
2022-11-21T18:49:07.024Z,75.80
2022-11-21T18:51:35.530Z,92.95
2022-11-21T18:54:08.711Z,73.68
2022-11-21T18:56:37.844Z,81.80
2022-11-21T18:59:06.646Z,83.30
2022-11-21T19:01:36.606Z,87.75
2022-11-21T19:04:04.222Z,77.97
2022-11-21T19:06:31.744Z,77.90
2022-11-21T19:08:59.550Z,77.93
2022-11-21T19:11:28.696Z,84.30
2022-11-21T19:13:57.814Z,75.07
2022-11-21T19:16:27.110Z,73.18
2022-11-21T19:19:31.928Z,79.35
2022-11-21T19:22:01.133Z,73.68
2022-11-21T19:24:28.222Z,88.68
2022-11-21T19:26:55.211Z,79.43
2022-11-21T19:29:22.375Z,70.07
2022-11-21T19:31:49.637Z,72.63
2022-11-21T19:34:17.104Z,77.53
2022-11-21T19:36:45.096Z,77.88
2022-11-21T19:39:12.854Z,66.75
2022-11-21T19:41:40.233Z,66.78
2022-11-21T19:44:07.386Z,72.93
2022-11-21T19:46:37.580Z,72.82
2022-11-21T19:49:06.256Z,72.60
2022-11-21T19:51:39.256Z,69.70
2022-11-21T19:54:08.206Z,64.15
2022-11-21T19:56:35.865Z,77.90
2022-11-21T19:59:03.669Z,75.18
2022-11-21T20:01:32.271Z,69.57
2022-11-21T20:04:02.446Z,73.90
2022-11-21T20:06:32.769Z,71.38
2022-11-21T20:09:12.065Z,77.10
2022-11-21T20:11:40.803Z,72.22
2022-11-21T20:14:08.993Z,77.05
2022-11-21T20:16:38.705Z,69.15
2022-11-21T20:19:11.323Z,76.25
2022-11-21T20:21:39.190Z,73.80
2022-11-21T20:24:07.023Z,79.25
2022-11-21T20:26:35.010Z,72.15
2022-11-21T20:29:02.686Z,68.05
2022-11-21T20:31:32.221Z,71.80
2022-11-21T20:34:05.199Z,65.10
2022-11-21T20:36:33.930Z,68.68
2022-11-21T20:39:04.813Z,69.70
2022-11-21T20:41:36.737Z,70.55
2022-11-21T20:45:20.334Z,66.38
2022-11-21T20:46:59.145Z,71.63
2022-11-21T20:49:26.564Z,76.03
2022-11-21T20:54:40.817Z,69.75
2022-11-21T20:57:13.246Z,60.25
2022-11-21T20:59:42.395Z,60.72
2022-11-21T21:02:12.485Z,72.25
2022-11-21T21:04:58.026Z,63.05
2022-11-21T21:07:25.459Z,70.55
2022-11-21T21:09:53.595Z,62.47
2022-11-21T21:12:20.832Z,64.75
2022-11-21T21:14:47.854Z,75.70
2022-11-21T21:17:14.922Z,65.72
2022-11-21T21:19:41.788Z,62.28
2022-11-21T21:22:09.179Z,67.47
2022-11-21T21:24:36.217Z,67.10
2022-11-21T21:27:03.667Z,71.90
2022-11-21T21:29:30.882Z,67.70
2022-11-21T21:31:58.516Z,62.97
2022-11-21T21:34:26.296Z,62.78
2022-11-21T21:36:53.665Z,65.47
2022-11-21T21:39:20.617Z,73.97
2022-11-21T21:41:48.127Z,66.75
2022-11-21T21:44:15.742Z,64.78
2022-11-21T21:46:43.760Z,71.63
2022-11-21T21:49:11.123Z,62.05
2022-11-21T21:51:38.548Z,72.30
2022-11-21T21:54:06.617Z,67.03
2022-11-21T21:56:35.169Z,70.47
2022-11-21T21:59:02.079Z,67.85
2022-11-21T22:01:31.342Z,68.30
2022-11-21T22:04:01.384Z,66.18
2022-11-21T22:06:29.985Z,69.38
2022-11-21T22:08:57.095Z,65.20
2022-11-21T22:11:30.125Z,68.13
2022-11-21T22:14:02.899Z,66.78
2022-11-21T22:16:31.194Z,61.25
2022-11-21T22:18:58.438Z,64.72
2022-11-21T22:21:28.605Z,67.75
2022-11-21T22:24:23.611Z,59.17
2022-11-21T22:26:45.332Z,56.33
2022-11-21T22:29:12.229Z,61.63
2022-11-21T22:31:39.577Z,60.35
2022-11-21T22:34:06.431Z,61.15
2022-11-21T22:36:33.880Z,61.13
2022-11-21T22:39:00.921Z,59.58
2022-11-21T22:41:28.382Z,55.10
2022-11-21T22:43:57.689Z,59.35
2022-11-21T22:46:27.228Z,62.35
2022-11-21T22:48:54.708Z,61.33
2022-11-21T22:51:25.169Z,57.92
2022-11-21T22:53:53.236Z,56.90
2022-11-21T22:56:23.060Z,60.90
2022-11-21T22:58:50.609Z,55.55
2022-11-21T23:01:20.316Z,65.57
2022-11-21T23:03:47.827Z,62.40
2022-11-21T23:06:18.096Z,59.25
2022-11-21T23:08:46.108Z,56.17
2022-11-21T23:11:18.594Z,61.88
2022-11-21T23:13:47.407Z,59.92
2022-11-21T23:16:16.033Z,59.20
2022-11-21T23:18:43.597Z,61.15
2022-11-21T23:21:12.011Z,58.03
2022-11-21T23:23:38.814Z,58.00
2022-11-21T23:26:06.827Z,56.75
2022-11-21T23:28:34.289Z,59.83
2022-11-21T23:31:01.464Z,56.92
2022-11-21T23:33:28.543Z,63.60
2022-11-21T23:35:57.026Z,58.53
2022-11-21T23:38:24.191Z,62.00
2022-11-21T23:40:51.501Z,55.97
2022-11-21T23:43:18.840Z,55.35
2022-11-21T23:45:53.697Z,59.38
2022-11-21T23:48:22.106Z,57.97
2022-11-21T23:50:52.712Z,53.67
2022-11-21T23:53:20.857Z,59.30
2022-11-21T23:55:48.531Z,60.55
2022-11-21T23:58:16.312Z,64.35
